sensor_id;sensor_type;location;lat;lon;timestamp;P1;durP1;ratioP1;P2;durP2;ratioP2
28335;SDS011;15592;53.656;7.276;2024-03-17T00:00:19;8.45;;;1.92;;
28335;SDS011;15592;53.656;7.276;2024-03-17T00:02:45;9.38;;;2.30;;
28335;SDS011;15592;53.656;7.276;2024-03-17T00:05:11;9.52;;;1.95;;
28335;SDS011;15592;53.656;7.276;2024-03-17T00:07:38;13.15;;;2.80;;
28335;SDS011;15592;53.656;7.276;2024-03-17T00:10:04;11.73;;;2.50;;
28335;SDS011;15592;53.656;7.276;2024-03-17T00:12:30;11.68;;;2.33;;
28335;SDS011;15592;53.656;7.276;2024-03-17T00:14:55;13.48;;;2.70;;
28335;SDS011;15592;53.656;7.276;2024-03-17T00:17:21;11.98;;;2.88;;
28335;SDS011;15592;53.656;7.276;2024-03-17T00:19:48;10.55;;;2.50;;
28335;SDS011;15592;53.656;7.276;2024-03-17T00:22:13;15.48;;;3.10;;
28335;SDS011;15592;53.656;7.276;2024-03-17T00:24:39;11.38;;;2.20;;
28335;SDS011;15592;53.656;7.276;2024-03-17T00:27:05;13.70;;;2.40;;
28335;SDS011;15592;53.656;7.276;2024-03-17T00:29:31;15.85;;;3.00;;
28335;SDS011;15592;53.656;7.276;2024-03-17T00:31:57;16.30;;;2.63;;
28335;SDS011;15592;53.656;7.276;2024-03-17T00:34:23;11.35;;;2.67;;
28335;SDS011;15592;53.656;7.276;2024-03-17T00:36:49;9.25;;;2.25;;
28335;SDS011;15592;53.656;7.276;2024-03-17T00:39:16;11.60;;;2.70;;
28335;SDS011;15592;53.656;7.276;2024-03-17T00:41:42;16.45;;;3.17;;
28335;SDS011;15592;53.656;7.276;2024-03-17T00:44:08;25.27;;;3.17;;
28335;SDS011;15592;53.656;7.276;2024-03-17T00:46:34;15.15;;;2.72;;
28335;SDS011;15592;53.656;7.276;2024-03-17T00:48:59;14.32;;;2.88;;
28335;SDS011;15592;53.656;7.276;2024-03-17T00:51:25;15.93;;;2.95;;
28335;SDS011;15592;53.656;7.276;2024-03-17T00:53:51;14.65;;;3.40;;
28335;SDS011;15592;53.656;7.276;2024-03-17T00:56:17;14.95;;;2.92;;
28335;SDS011;15592;53.656;7.276;2024-03-17T00:58:42;12.77;;;3.25;;
28335;SDS011;15592;53.656;7.276;2024-03-17T01:01:09;13.23;;;3.40;;
28335;SDS011;15592;53.656;7.276;2024-03-17T01:03:35;16.52;;;3.38;;
28335;SDS011;15592;53.656;7.276;2024-03-17T01:06:03;16.73;;;4.53;;
28335;SDS011;15592;53.656;7.276;2024-03-17T01:08:29;18.92;;;5.50;;
28335;SDS011;15592;53.656;7.276;2024-03-17T01:10:55;19.23;;;4.25;;
28335;SDS011;15592;53.656;7.276;2024-03-17T01:13:21;15.23;;;3.50;;
28335;SDS011;15592;53.656;7.276;2024-03-17T01:15:50;18.17;;;4.10;;
28335;SDS011;15592;53.656;7.276;2024-03-17T01:18:17;14.52;;;3.75;;
28335;SDS011;15592;53.656;7.276;2024-03-17T01:20:42;21.80;;;4.68;;
28335;SDS011;15592;53.656;7.276;2024-03-17T01:23:08;14.05;;;3.80;;
28335;SDS011;15592;53.656;7.276;2024-03-17T01:25:34;9.70;;;2.85;;
28335;SDS011;15592;53.656;7.276;2024-03-17T01:28:03;14.52;;;3.35;;
28335;SDS011;15592;53.656;7.276;2024-03-17T01:30:29;12.57;;;2.63;;
28335;SDS011;15592;53.656;7.276;2024-03-17T01:32:55;10.60;;;2.75;;
28335;SDS011;15592;53.656;7.276;2024-03-17T01:35:21;9.98;;;3.30;;
28335;SDS011;15592;53.656;7.276;2024-03-17T01:37:48;7.95;;;2.17;;
28335;SDS011;15592;53.656;7.276;2024-03-17T01:40:13;5.72;;;2.00;;
28335;SDS011;15592;53.656;7.276;2024-03-17T01:42:39;6.80;;;2.00;;
28335;SDS011;15592;53.656;7.276;2024-03-17T01:47:50;14.60;;;3.15;;
28335;SDS011;15592;53.656;7.276;2024-03-17T01:50:15;11.00;;;2.78;;
28335;SDS011;15592;53.656;7.276;2024-03-17T01:52:44;7.03;;;2.42;;
28335;SDS011;15592;53.656;7.276;2024-03-17T01:55:11;17.80;;;2.67;;
28335;SDS011;15592;53.656;7.276;2024-03-17T01:57:37;7.30;;;2.15;;
28335;SDS011;15592;53.656;7.276;2024-03-17T02:00:05;14.13;;;2.45;;
28335;SDS011;15592;53.656;7.276;2024-03-17T02:02:33;11.48;;;2.90;;
28335;SDS011;15592;53.656;7.276;2024-03-17T02:04:59;11.55;;;2.90;;
28335;SDS011;15592;53.656;7.276;2024-03-17T02:07:25;8.35;;;2.42;;
28335;SDS011;15592;53.656;7.276;2024-03-17T02:09:51;17.50;;;3.40;;
28335;SDS011;15592;53.656;7.276;2024-03-17T02:12:16;16.35;;;3.10;;
28335;SDS011;15592;53.656;7.276;2024-03-17T02:14:42;19.17;;;3.90;;
28335;SDS011;15592;53.656;7.276;2024-03-17T02:17:08;11.32;;;3.42;;
28335;SDS011;15592;53.656;7.276;2024-03-17T02:19:33;8.43;;;2.60;;
28335;SDS011;15592;53.656;7.276;2024-03-17T02:21:59;11.25;;;2.95;;
28335;SDS011;15592;53.656;7.276;2024-03-17T02:24:25;19.33;;;4.28;;
28335;SDS011;15592;53.656;7.276;2024-03-17T02:26:51;9.73;;;3.22;;
28335;SDS011;15592;53.656;7.276;2024-03-17T02:29:16;14.57;;;3.72;;
28335;SDS011;15592;53.656;7.276;2024-03-17T02:31:42;17.70;;;3.88;;
28335;SDS011;15592;53.656;7.276;2024-03-17T02:34:08;14.27;;;3.05;;
28335;SDS011;15592;53.656;7.276;2024-03-17T02:36:33;12.80;;;3.22;;
28335;SDS011;15592;53.656;7.276;2024-03-17T02:38:59;10.35;;;3.15;;
28335;SDS011;15592;53.656;7.276;2024-03-17T02:41:43;11.30;;;3.40;;
28335;SDS011;15592;53.656;7.276;2024-03-17T02:44:10;15.02;;;3.45;;
28335;SDS011;15592;53.656;7.276;2024-03-17T02:46:36;14.10;;;3.78;;
28335;SDS011;15592;53.656;7.276;2024-03-17T02:49:03;12.13;;;3.45;;
28335;SDS011;15592;53.656;7.276;2024-03-17T02:51:28;13.23;;;3.65;;
28335;SDS011;15592;53.656;7.276;2024-03-17T02:53:54;10.38;;;3.72;;
28335;SDS011;15592;53.656;7.276;2024-03-17T02:56:20;9.32;;;3.53;;
28335;SDS011;15592;53.656;7.276;2024-03-17T02:58:46;12.13;;;4.10;;
28335;SDS011;15592;53.656;7.276;2024-03-17T03:01:12;12.93;;;3.85;;
28335;SDS011;15592;53.656;7.276;2024-03-17T03:03:39;10.40;;;3.58;;
28335;SDS011;15592;53.656;7.276;2024-03-17T03:06:05;11.18;;;3.53;;
28335;SDS011;15592;53.656;7.276;2024-03-17T03:08:38;12.63;;;4.15;;
28335;SDS011;15592;53.656;7.276;2024-03-17T03:11:06;16.00;;;3.85;;
28335;SDS011;15592;53.656;7.276;2024-03-17T03:13:36;15.07;;;3.63;;
28335;SDS011;15592;53.656;7.276;2024-03-17T03:16:03;16.77;;;3.95;;
28335;SDS011;15592;53.656;7.276;2024-03-17T03:18:30;11.65;;;4.03;;
28335;SDS011;15592;53.656;7.276;2024-03-17T03:20:55;16.33;;;4.38;;
28335;SDS011;15592;53.656;7.276;2024-03-17T03:23:21;15.98;;;4.10;;
28335;SDS011;15592;53.656;7.276;2024-03-17T03:25:46;14.15;;;3.90;;
28335;SDS011;15592;53.656;7.276;2024-03-17T03:28:12;10.18;;;3.65;;
28335;SDS011;15592;53.656;7.276;2024-03-17T03:30:38;16.67;;;4.13;;
28335;SDS011;15592;53.656;7.276;2024-03-17T03:33:04;13.98;;;3.85;;
28335;SDS011;15592;53.656;7.276;2024-03-17T03:35:30;12.93;;;4.05;;
28335;SDS011;15592;53.656;7.276;2024-03-17T03:37:56;13.77;;;3.72;;
28335;SDS011;15592;53.656;7.276;2024-03-17T03:40:22;8.90;;;3.75;;
28335;SDS011;15592;53.656;7.276;2024-03-17T03:42:47;13.15;;;3.65;;
28335;SDS011;15592;53.656;7.276;2024-03-17T03:45:13;11.32;;;4.22;;
28335;SDS011;15592;53.656;7.276;2024-03-17T03:47:39;11.93;;;4.57;;
28335;SDS011;15592;53.656;7.276;2024-03-17T03:50:07;9.65;;;4.28;;
28335;SDS011;15592;53.656;7.276;2024-03-17T03:52:34;10.98;;;4.22;;
28335;SDS011;15592;53.656;7.276;2024-03-17T03:55:00;10.45;;;4.68;;
28335;SDS011;15592;53.656;7.276;2024-03-17T03:57:26;13.02;;;4.35;;
28335;SDS011;15592;53.656;7.276;2024-03-17T03:59:54;14.32;;;4.45;;
28335;SDS011;15592;53.656;7.276;2024-03-17T04:02:20;10.82;;;4.38;;
28335;SDS011;15592;53.656;7.276;2024-03-17T04:04:46;12.98;;;5.38;;
28335;SDS011;15592;53.656;7.276;2024-03-17T04:07:12;12.50;;;5.07;;
28335;SDS011;15592;53.656;7.276;2024-03-17T04:09:38;14.60;;;5.05;;
28335;SDS011;15592;53.656;7.276;2024-03-17T04:12:04;12.45;;;5.10;;
28335;SDS011;15592;53.656;7.276;2024-03-17T04:14:30;10.88;;;4.85;;
28335;SDS011;15592;53.656;7.276;2024-03-17T04:16:55;9.50;;;4.13;;
28335;SDS011;15592;53.656;7.276;2024-03-17T04:19:21;8.57;;;4.50;;
28335;SDS011;15592;53.656;7.276;2024-03-17T04:21:47;8.63;;;3.92;;
28335;SDS011;15592;53.656;7.276;2024-03-17T04:24:13;9.52;;;3.40;;
28335;SDS011;15592;53.656;7.276;2024-03-17T04:26:38;10.13;;;4.25;;
28335;SDS011;15592;53.656;7.276;2024-03-17T04:29:04;8.27;;;3.63;;
28335;SDS011;15592;53.656;7.276;2024-03-17T04:31:30;7.32;;;3.65;;
28335;SDS011;15592;53.656;7.276;2024-03-17T04:33:56;8.77;;;3.42;;
28335;SDS011;15592;53.656;7.276;2024-03-17T04:36:22;6.97;;;3.80;;
28335;SDS011;15592;53.656;7.276;2024-03-17T04:38:47;10.50;;;3.90;;
28335;SDS011;15592;53.656;7.276;2024-03-17T04:41:17;8.15;;;3.30;;
28335;SDS011;15592;53.656;7.276;2024-03-17T04:46:09;9.13;;;3.72;;
28335;SDS011;15592;53.656;7.276;2024-03-17T04:48:37;10.57;;;3.70;;
28335;SDS011;15592;53.656;7.276;2024-03-17T04:51:03;8.85;;;4.28;;
28335;SDS011;15592;53.656;7.276;2024-03-17T04:53:30;14.23;;;4.63;;
28335;SDS011;15592;53.656;7.276;2024-03-17T04:56:03;11.35;;;4.35;;
28335;SDS011;15592;53.656;7.276;2024-03-17T04:58:32;14.55;;;4.88;;
28335;SDS011;15592;53.656;7.276;2024-03-17T05:01:06;13.27;;;5.18;;
28335;SDS011;15592;53.656;7.276;2024-03-17T05:03:34;13.93;;;5.03;;
28335;SDS011;15592;53.656;7.276;2024-03-17T05:06:01;14.85;;;4.93;;
28335;SDS011;15592;53.656;7.276;2024-03-17T05:08:28;15.88;;;5.05;;
28335;SDS011;15592;53.656;7.276;2024-03-17T05:13:26;11.85;;;5.47;;
28335;SDS011;15592;53.656;7.276;2024-03-17T05:15:53;9.73;;;5.00;;
28335;SDS011;15592;53.656;7.276;2024-03-17T05:18:18;13.00;;;4.85;;
28335;SDS011;15592;53.656;7.276;2024-03-17T05:20:45;12.82;;;5.30;;
28335;SDS011;15592;53.656;7.276;2024-03-17T05:23:14;13.02;;;5.68;;
28335;SDS011;15592;53.656;7.276;2024-03-17T05:25:39;14.68;;;5.70;;
28335;SDS011;15592;53.656;7.276;2024-03-17T05:28:05;12.07;;;5.80;;
28335;SDS011;15592;53.656;7.276;2024-03-17T05:30:30;11.82;;;5.88;;
28335;SDS011;15592;53.656;7.276;2024-03-17T05:32:56;13.32;;;5.65;;
28335;SDS011;15592;53.656;7.276;2024-03-17T05:35:22;9.07;;;5.55;;
28335;SDS011;15592;53.656;7.276;2024-03-17T05:37:50;12.55;;;5.10;;
28335;SDS011;15592;53.656;7.276;2024-03-17T05:40:15;16.05;;;7.03;;
28335;SDS011;15592;53.656;7.276;2024-03-17T05:42:41;13.90;;;6.05;;
28335;SDS011;15592;53.656;7.276;2024-03-17T05:45:08;15.88;;;6.22;;
28335;SDS011;15592;53.656;7.276;2024-03-17T05:47:36;15.82;;;6.47;;
28335;SDS011;15592;53.656;7.276;2024-03-17T05:50:03;14.07;;;6.50;;
28335;SDS011;15592;53.656;7.276;2024-03-17T05:52:29;11.80;;;6.25;;
28335;SDS011;15592;53.656;7.276;2024-03-17T05:54:55;13.60;;;6.30;;
28335;SDS011;15592;53.656;7.276;2024-03-17T05:57:21;11.45;;;6.47;;
28335;SDS011;15592;53.656;7.276;2024-03-17T05:59:47;13.70;;;6.35;;
28335;SDS011;15592;53.656;7.276;2024-03-17T06:02:13;11.50;;;6.57;;
28335;SDS011;15592;53.656;7.276;2024-03-17T06:04:40;14.63;;;7.38;;
28335;SDS011;15592;53.656;7.276;2024-03-17T06:07:06;13.15;;;6.53;;
28335;SDS011;15592;53.656;7.276;2024-03-17T06:09:31;17.00;;;7.20;;
28335;SDS011;15592;53.656;7.276;2024-03-17T06:11:57;13.20;;;6.80;;
28335;SDS011;15592;53.656;7.276;2024-03-17T06:14:23;11.18;;;6.38;;
28335;SDS011;15592;53.656;7.276;2024-03-17T06:16:48;13.40;;;6.10;;
28335;SDS011;15592;53.656;7.276;2024-03-17T06:19:14;16.77;;;7.00;;
28335;SDS011;15592;53.656;7.276;2024-03-17T06:21:40;15.98;;;7.05;;
28335;SDS011;15592;53.656;7.276;2024-03-17T06:24:06;14.68;;;6.72;;
28335;SDS011;15592;53.656;7.276;2024-03-17T06:26:31;13.98;;;7.55;;
28335;SDS011;15592;53.656;7.276;2024-03-17T06:28:59;15.65;;;7.75;;
28335;SDS011;15592;53.656;7.276;2024-03-17T06:31:25;14.45;;;7.63;;
28335;SDS011;15592;53.656;7.276;2024-03-17T06:33:51;23.48;;;7.85;;
28335;SDS011;15592;53.656;7.276;2024-03-17T06:36:16;16.33;;;7.57;;
28335;SDS011;15592;53.656;7.276;2024-03-17T06:38:42;17.33;;;7.85;;
28335;SDS011;15592;53.656;7.276;2024-03-17T06:41:09;18.85;;;7.65;;
28335;SDS011;15592;53.656;7.276;2024-03-17T06:43:35;13.77;;;7.38;;
28335;SDS011;15592;53.656;7.276;2024-03-17T06:46:01;17.08;;;7.20;;
28335;SDS011;15592;53.656;7.276;2024-03-17T06:48:27;18.95;;;7.60;;
28335;SDS011;15592;53.656;7.276;2024-03-17T06:50:54;16.17;;;7.93;;
28335;SDS011;15592;53.656;7.276;2024-03-17T06:53:23;22.40;;;7.72;;
28335;SDS011;15592;53.656;7.276;2024-03-17T06:55:56;14.63;;;6.95;;
28335;SDS011;15592;53.656;7.276;2024-03-17T06:58:23;16.15;;;7.00;;
28335;SDS011;15592;53.656;7.276;2024-03-17T07:00:54;21.95;;;7.80;;
28335;SDS011;15592;53.656;7.276;2024-03-17T07:03:28;16.17;;;7.35;;
28335;SDS011;15592;53.656;7.276;2024-03-17T07:05:55;21.42;;;7.18;;
28335;SDS011;15592;53.656;7.276;2024-03-17T07:08:22;17.15;;;6.97;;
28335;SDS011;15592;53.656;7.276;2024-03-17T07:10:57;21.63;;;8.00;;
28335;SDS011;15592;53.656;7.276;2024-03-17T07:13:24;13.63;;;6.88;;
28335;SDS011;15592;53.656;7.276;2024-03-17T07:15:50;11.40;;;6.78;;
28335;SDS011;15592;53.656;7.276;2024-03-17T07:18:15;14.43;;;7.38;;
28335;SDS011;15592;53.656;7.276;2024-03-17T07:20:41;14.05;;;6.90;;
28335;SDS011;15592;53.656;7.276;2024-03-17T07:23:07;18.23;;;7.10;;
28335;SDS011;15592;53.656;7.276;2024-03-17T07:25:32;17.65;;;7.18;;
28335;SDS011;15592;53.656;7.276;2024-03-17T07:27:58;18.00;;;7.13;;
28335;SDS011;15592;53.656;7.276;2024-03-17T07:30:23;21.05;;;8.07;;
28335;SDS011;15592;53.656;7.276;2024-03-17T07:32:49;15.20;;;7.07;;
28335;SDS011;15592;53.656;7.276;2024-03-17T07:35:15;19.70;;;7.95;;
28335;SDS011;15592;53.656;7.276;2024-03-17T07:37:40;15.82;;;7.80;;
28335;SDS011;15592;53.656;7.276;2024-03-17T07:40:06;18.20;;;7.85;;
28335;SDS011;15592;53.656;7.276;2024-03-17T07:42:32;14.48;;;6.88;;
28335;SDS011;15592;53.656;7.276;2024-03-17T07:44:59;14.35;;;7.00;;
28335;SDS011;15592;53.656;7.276;2024-03-17T07:47:24;15.82;;;7.22;;
28335;SDS011;15592;53.656;7.276;2024-03-17T07:49:50;14.63;;;7.75;;
28335;SDS011;15592;53.656;7.276;2024-03-17T07:52:16;16.25;;;8.10;;
28335;SDS011;15592;53.656;7.276;2024-03-17T07:54:41;17.00;;;8.50;;
28335;SDS011;15592;53.656;7.276;2024-03-17T07:57:07;14.13;;;7.32;;
28335;SDS011;15592;53.656;7.276;2024-03-17T07:59:34;19.02;;;7.80;;
28335;SDS011;15592;53.656;7.276;2024-03-17T08:01:59;15.18;;;6.82;;
28335;SDS011;15592;53.656;7.276;2024-03-17T08:04:25;20.40;;;7.25;;
28335;SDS011;15592;53.656;7.276;2024-03-17T08:06:50;11.95;;;6.57;;
28335;SDS011;15592;53.656;7.276;2024-03-17T08:09:17;14.07;;;5.75;;
28335;SDS011;15592;53.656;7.276;2024-03-17T08:11:43;16.15;;;5.80;;
28335;SDS011;15592;53.656;7.276;2024-03-17T08:14:12;16.17;;;5.50;;
28335;SDS011;15592;53.656;7.276;2024-03-17T08:16:39;16.67;;;6.40;;
28335;SDS011;15592;53.656;7.276;2024-03-17T08:19:05;10.60;;;4.90;;
28335;SDS011;15592;53.656;7.276;2024-03-17T08:21:32;12.88;;;5.10;;
28335;SDS011;15592;53.656;7.276;2024-03-17T08:23:57;19.45;;;5.60;;
28335;SDS011;15592;53.656;7.276;2024-03-17T08:26:23;13.45;;;4.78;;
28335;SDS011;15592;53.656;7.276;2024-03-17T08:28:48;11.20;;;4.35;;
28335;SDS011;15592;53.656;7.276;2024-03-17T08:31:14;10.48;;;4.18;;
28335;SDS011;15592;53.656;7.276;2024-03-17T08:33:42;9.32;;;3.85;;
28335;SDS011;15592;53.656;7.276;2024-03-17T08:36:08;7.82;;;3.88;;
28335;SDS011;15592;53.656;7.276;2024-03-17T08:38:34;8.38;;;3.88;;
28335;SDS011;15592;53.656;7.276;2024-03-17T08:41:02;10.00;;;3.45;;
28335;SDS011;15592;53.656;7.276;2024-03-17T08:43:29;10.25;;;3.92;;
28335;SDS011;15592;53.656;7.276;2024-03-17T08:45:59;10.40;;;3.47;;
28335;SDS011;15592;53.656;7.276;2024-03-17T08:48:28;13.38;;;3.70;;
28335;SDS011;15592;53.656;7.276;2024-03-17T08:50:55;10.48;;;3.72;;
28335;SDS011;15592;53.656;7.276;2024-03-17T08:53:22;15.30;;;3.72;;
28335;SDS011;15592;53.656;7.276;2024-03-17T08:55:48;9.18;;;3.33;;
28335;SDS011;15592;53.656;7.276;2024-03-17T08:58:15;12.15;;;3.25;;
28335;SDS011;15592;53.656;7.276;2024-03-17T09:00:41;9.52;;;3.22;;
28335;SDS011;15592;53.656;7.276;2024-03-17T09:03:07;11.48;;;3.30;;
28335;SDS011;15592;53.656;7.276;2024-03-17T09:05:37;9.55;;;3.17;;
28335;SDS011;15592;53.656;7.276;2024-03-17T09:08:07;10.00;;;3.67;;
28335;SDS011;15592;53.656;7.276;2024-03-17T09:10:41;8.80;;;2.83;;
28335;SDS011;15592;53.656;7.276;2024-03-17T09:13:17;18.90;;;3.70;;
28335;SDS011;15592;53.656;7.276;2024-03-17T09:15:51;11.63;;;3.00;;
28335;SDS011;15592;53.656;7.276;2024-03-17T09:18:17;10.57;;;2.83;;
28335;SDS011;15592;53.656;7.276;2024-03-17T09:20:43;9.10;;;2.85;;
28335;SDS011;15592;53.656;7.276;2024-03-17T09:23:09;13.65;;;3.08;;
28335;SDS011;15592;53.656;7.276;2024-03-17T09:25:34;15.45;;;2.50;;
28335;SDS011;15592;53.656;7.276;2024-03-17T09:28:00;9.48;;;2.45;;
28335;SDS011;15592;53.656;7.276;2024-03-17T09:30:26;15.40;;;2.55;;
28335;SDS011;15592;53.656;7.276;2024-03-17T09:32:52;11.10;;;2.28;;
28335;SDS011;15592;53.656;7.276;2024-03-17T09:35:18;6.53;;;2.28;;
28335;SDS011;15592;53.656;7.276;2024-03-17T09:37:43;13.05;;;3.15;;
28335;SDS011;15592;53.656;7.276;2024-03-17T09:40:15;17.45;;;3.10;;
28335;SDS011;15592;53.656;7.276;2024-03-17T09:42:41;13.65;;;3.50;;
28335;SDS011;15592;53.656;7.276;2024-03-17T09:45:09;8.88;;;2.78;;
28335;SDS011;15592;53.656;7.276;2024-03-17T09:47:35;14.10;;;2.97;;
28335;SDS011;15592;53.656;7.276;2024-03-17T09:50:01;8.35;;;2.35;;
28335;SDS011;15592;53.656;7.276;2024-03-17T09:52:27;14.73;;;2.97;;
28335;SDS011;15592;53.656;7.276;2024-03-17T09:55:01;13.10;;;2.85;;
28335;SDS011;15592;53.656;7.276;2024-03-17T09:57:34;12.27;;;2.60;;
28335;SDS011;15592;53.656;7.276;2024-03-17T10:00:04;12.13;;;3.15;;
28335;SDS011;15592;53.656;7.276;2024-03-17T10:02:41;15.50;;;2.58;;
28335;SDS011;15592;53.656;7.276;2024-03-17T10:05:18;7.88;;;2.10;;
28335;SDS011;15592;53.656;7.276;2024-03-17T10:07:48;14.63;;;2.55;;
28335;SDS011;15592;53.656;7.276;2024-03-17T10:10:14;9.02;;;2.53;;
28335;SDS011;15592;53.656;7.276;2024-03-17T10:12:43;13.38;;;2.80;;
28335;SDS011;15592;53.656;7.276;2024-03-17T10:15:14;7.70;;;2.00;;
28335;SDS011;15592;53.656;7.276;2024-03-17T10:17:39;8.95;;;2.40;;
28335;SDS011;15592;53.656;7.276;2024-03-17T10:22:41;12.88;;;2.58;;
28335;SDS011;15592;53.656;7.276;2024-03-17T10:25:23;9.48;;;2.53;;
28335;SDS011;15592;53.656;7.276;2024-03-17T10:27:49;10.32;;;2.70;;
28335;SDS011;15592;53.656;7.276;2024-03-17T10:30:18;13.40;;;2.85;;
28335;SDS011;15592;53.656;7.276;2024-03-17T10:32:45;11.60;;;2.63;;
28335;SDS011;15592;53.656;7.276;2024-03-17T10:35:25;7.72;;;2.55;;
28335;SDS011;15592;53.656;7.276;2024-03-17T10:37:53;5.57;;;2.22;;
28335;SDS011;15592;53.656;7.276;2024-03-17T10:40:26;10.65;;;2.65;;
28335;SDS011;15592;53.656;7.276;2024-03-17T10:42:52;10.15;;;2.97;;
28335;SDS011;15592;53.656;7.276;2024-03-17T10:45:18;8.40;;;2.10;;
28335;SDS011;15592;53.656;7.276;2024-03-17T10:47:49;9.05;;;2.55;;
28335;SDS011;15592;53.656;7.276;2024-03-17T10:50:19;9.38;;;2.30;;
28335;SDS011;15592;53.656;7.276;2024-03-17T10:52:47;7.75;;;2.85;;
28335;SDS011;15592;53.656;7.276;2024-03-17T10:55:20;13.57;;;2.53;;
28335;SDS011;15592;53.656;7.276;2024-03-17T10:57:53;8.27;;;2.97;;
28335;SDS011;15592;53.656;7.276;2024-03-17T11:00:23;13.77;;;2.83;;
28335;SDS011;15592;53.656;7.276;2024-03-17T11:02:50;6.85;;;2.15;;
28335;SDS011;15592;53.656;7.276;2024-03-17T11:05:26;10.07;;;2.92;;
28335;SDS011;15592;53.656;7.276;2024-03-17T11:08:00;6.40;;;2.80;;
28335;SDS011;15592;53.656;7.276;2024-03-17T11:10:27;8.15;;;2.80;;
28335;SDS011;15592;53.656;7.276;2024-03-17T11:12:57;8.93;;;2.65;;
28335;SDS011;15592;53.656;7.276;2024-03-17T11:21:00;9.27;;;2.60;;
28335;SDS011;15592;53.656;7.276;2024-03-17T11:23:35;9.85;;;2.80;;
28335;SDS011;15592;53.656;7.276;2024-03-17T11:26:05;7.87;;;2.70;;
28335;SDS011;15592;53.656;7.276;2024-03-17T11:33:57;8.35;;;2.45;;
28335;SDS011;15592;53.656;7.276;2024-03-17T11:38:51;8.45;;;2.80;;
28335;SDS011;15592;53.656;7.276;2024-03-17T11:46:50;9.40;;;3.17;;
28335;SDS011;15592;53.656;7.276;2024-03-17T11:49:21;9.75;;;3.20;;
28335;SDS011;15592;53.656;7.276;2024-03-17T11:51:48;13.77;;;2.97;;
28335;SDS011;15592;53.656;7.276;2024-03-17T11:54:28;10.23;;;2.67;;
28335;SDS011;15592;53.656;7.276;2024-03-17T11:57:03;9.57;;;2.88;;
28335;SDS011;15592;53.656;7.276;2024-03-17T11:59:37;11.27;;;3.22;;
28335;SDS011;15592;53.656;7.276;2024-03-17T12:02:10;16.83;;;3.63;;
28335;SDS011;15592;53.656;7.276;2024-03-17T12:04:45;17.20;;;3.22;;
28335;SDS011;15592;53.656;7.276;2024-03-17T12:07:13;15.13;;;4.18;;
28335;SDS011;15592;53.656;7.276;2024-03-17T12:09:43;13.80;;;4.72;;
28335;SDS011;15592;53.656;7.276;2024-03-17T12:12:21;9.77;;;3.70;;
28335;SDS011;15592;53.656;7.276;2024-03-17T12:14:48;10.70;;;4.07;;
28335;SDS011;15592;53.656;7.276;2024-03-17T12:17:19;13.85;;;4.03;;
28335;SDS011;15592;53.656;7.276;2024-03-17T12:19:46;9.20;;;3.30;;
28335;SDS011;15592;53.656;7.276;2024-03-17T12:22:17;14.68;;;3.95;;
28335;SDS011;15592;53.656;7.276;2024-03-17T12:24:44;9.43;;;3.80;;
28335;SDS011;15592;53.656;7.276;2024-03-17T12:27:15;15.65;;;4.97;;
28335;SDS011;15592;53.656;7.276;2024-03-17T12:29:49;9.70;;;3.67;;
28335;SDS011;15592;53.656;7.276;2024-03-17T12:32:17;15.60;;;4.40;;
28335;SDS011;15592;53.656;7.276;2024-03-17T12:34:45;13.50;;;4.90;;
28335;SDS011;15592;53.656;7.276;2024-03-17T12:37:16;10.25;;;4.20;;
28335;SDS011;15592;53.656;7.276;2024-03-17T12:39:43;9.85;;;4.63;;
28335;SDS011;15592;53.656;7.276;2024-03-17T12:42:10;11.75;;;4.57;;
28335;SDS011;15592;53.656;7.276;2024-03-17T12:44:48;14.45;;;4.93;;
28335;SDS011;15592;53.656;7.276;2024-03-17T12:47:16;9.82;;;4.45;;
28335;SDS011;15592;53.656;7.276;2024-03-17T12:49:56;13.02;;;4.78;;
28335;SDS011;15592;53.656;7.276;2024-03-17T12:52:23;13.20;;;3.90;;
28335;SDS011;15592;53.656;7.276;2024-03-17T12:54:59;9.48;;;4.10;;
28335;SDS011;15592;53.656;7.276;2024-03-17T12:57:48;14.63;;;5.07;;
28335;SDS011;15592;53.656;7.276;2024-03-17T13:00:33;11.90;;;4.32;;
28335;SDS011;15592;53.656;7.276;2024-03-17T13:03:06;13.18;;;5.63;;
28335;SDS011;15592;53.656;7.276;2024-03-17T13:05:36;9.60;;;4.63;;
28335;SDS011;15592;53.656;7.276;2024-03-17T13:08:02;15.53;;;5.30;;
28335;SDS011;15592;53.656;7.276;2024-03-17T13:10:28;10.05;;;5.22;;
28335;SDS011;15592;53.656;7.276;2024-03-17T13:13:04;12.73;;;5.45;;
28335;SDS011;15592;53.656;7.276;2024-03-17T13:15:32;11.05;;;5.28;;
28335;SDS011;15592;53.656;7.276;2024-03-17T13:18:02;14.60;;;5.55;;
28335;SDS011;15592;53.656;7.276;2024-03-17T13:20:29;14.45;;;5.30;;
28335;SDS011;15592;53.656;7.276;2024-03-17T13:22:56;12.65;;;6.18;;
28335;SDS011;15592;53.656;7.276;2024-03-17T13:25:23;13.88;;;6.80;;
28335;SDS011;15592;53.656;7.276;2024-03-17T13:27:51;15.38;;;5.70;;
28335;SDS011;15592;53.656;7.276;2024-03-17T13:30:18;12.70;;;5.50;;
28335;SDS011;15592;53.656;7.276;2024-03-17T13:32:45;11.75;;;5.57;;
28335;SDS011;15592;53.656;7.276;2024-03-17T13:35:17;9.13;;;5.03;;
28335;SDS011;15592;53.656;7.276;2024-03-17T13:37:44;12.95;;;4.80;;
28335;SDS011;15592;53.656;7.276;2024-03-17T13:40:11;14.00;;;5.47;;
28335;SDS011;15592;53.656;7.276;2024-03-17T13:42:43;12.43;;;5.75;;
28335;SDS011;15592;53.656;7.276;2024-03-17T13:45:15;13.65;;;5.60;;
28335;SDS011;15592;53.656;7.276;2024-03-17T13:47:41;17.13;;;6.95;;
28335;SDS011;15592;53.656;7.276;2024-03-17T13:50:29;13.25;;;6.30;;
28335;SDS011;15592;53.656;7.276;2024-03-17T13:53:59;16.67;;;6.25;;
28335;SDS011;15592;53.656;7.276;2024-03-17T13:56:36;14.80;;;6.15;;
28335;SDS011;15592;53.656;7.276;2024-03-17T14:02:24;12.63;;;6.60;;
28335;SDS011;15592;53.656;7.276;2024-03-17T14:04:54;15.30;;;6.43;;
28335;SDS011;15592;53.656;7.276;2024-03-17T14:07:23;14.02;;;6.07;;
28335;SDS011;15592;53.656;7.276;2024-03-17T14:09:49;15.15;;;6.40;;
28335;SDS011;15592;53.656;7.276;2024-03-17T14:12:14;13.98;;;6.60;;
28335;SDS011;15592;53.656;7.276;2024-03-17T14:14:43;15.43;;;6.28;;
28335;SDS011;15592;53.656;7.276;2024-03-17T14:17:08;12.07;;;5.90;;
28335;SDS011;15592;53.656;7.276;2024-03-17T14:19:34;12.02;;;6.45;;
28335;SDS011;15592;53.656;7.276;2024-03-17T14:22:00;13.77;;;6.80;;
28335;SDS011;15592;53.656;7.276;2024-03-17T14:24:26;11.30;;;6.43;;
28335;SDS011;15592;53.656;7.276;2024-03-17T14:26:54;15.05;;;6.25;;
28335;SDS011;15592;53.656;7.276;2024-03-17T14:29:20;13.40;;;5.93;;
28335;SDS011;15592;53.656;7.276;2024-03-17T14:31:45;12.90;;;6.10;;
28335;SDS011;15592;53.656;7.276;2024-03-17T14:34:11;15.10;;;6.20;;
28335;SDS011;15592;53.656;7.276;2024-03-17T14:36:40;11.23;;;5.72;;
28335;SDS011;15592;53.656;7.276;2024-03-17T14:39:06;14.50;;;6.40;;
28335;SDS011;15592;53.656;7.276;2024-03-17T14:41:32;10.45;;;6.00;;
28335;SDS011;15592;53.656;7.276;2024-03-17T14:43:58;10.73;;;5.80;;
28335;SDS011;15592;53.656;7.276;2024-03-17T14:46:26;12.65;;;5.28;;
28335;SDS011;15592;53.656;7.276;2024-03-17T14:48:52;13.25;;;5.63;;
28335;SDS011;15592;53.656;7.276;2024-03-17T14:51:18;12.75;;;5.30;;
28335;SDS011;15592;53.656;7.276;2024-03-17T14:53:46;7.93;;;4.90;;
28335;SDS011;15592;53.656;7.276;2024-03-17T14:58:42;13.85;;;5.35;;
28335;SDS011;15592;53.656;7.276;2024-03-17T15:01:09;12.40;;;6.18;;
28335;SDS011;15592;53.656;7.276;2024-03-17T15:03:35;15.20;;;6.03;;
28335;SDS011;15592;53.656;7.276;2024-03-17T15:06:01;12.88;;;5.90;;
28335;SDS011;15592;53.656;7.276;2024-03-17T15:08:29;9.15;;;5.63;;
28335;SDS011;15592;53.656;7.276;2024-03-17T15:10:55;14.18;;;5.82;;
28335;SDS011;15592;53.656;7.276;2024-03-17T15:13:21;9.10;;;5.50;;
28335;SDS011;15592;53.656;7.276;2024-03-17T15:15:48;13.35;;;5.88;;